Time;durP1;ratioP1;P1;durP2;ratioP2;P2;SDS_P1;SDS_P2;PMS_P1;PMS_P2;Temp;Humidity;BMP_temperature;BMP_pressure;BME280_temperature;BME280_humidity;BME280_pressure;Samples;Min_cycle;Max_cycle;Signal;HPM_P1;HPM_P2
2023/03/15 00:00:38;;;;;;;9.65;2.60;;;2.20;99.90;;;;;;4963522;28;20635;-53
2023/03/15 00:03:04;;;;;;;8.02;2.80;;;2.10;99.90;;;;;;4963482;28;20035;-51
2023/03/15 00:05:30;;;;;;;9.00;2.78;;;2.10;99.90;;;;;;4966506;28;20401;-50
2023/03/15 00:07:57;;;;;;;7.18;2.63;;;2.10;99.90;;;;;;4961371;28;20673;-50
2023/03/15 00:10:23;;;;;;;7.97;3.08;;;2.10;99.90;;;;;;4962741;28;20053;-50
2023/03/15 00:12:48;;;;;;;4.40;2.97;;;2.00;99.90;;;;;;4965744;28;20043;-50
2023/03/15 00:15:14;;;;;;;7.57;3.20;;;2.00;99.90;;;;;;4963800;28;20039;-50
2023/03/15 00:17:40;;;;;;;6.28;2.90;;;2.00;99.90;;;;;;4960451;28;20473;-52
2023/03/15 00:20:06;;;;;;;5.43;2.55;;;2.00;99.90;;;;;;4966234;28;20100;-53
2023/03/15 00:22:32;;;;;;;8.10;3.35;;;2.00;99.90;;;;;;5018347;28;20039;-55
2023/03/15 00:24:58;;;;;;;7.82;2.95;;;1.90;99.90;;;;;;4969950;28;20049;-49
2023/03/15 00:27:23;;;;;;;4.45;2.83;;;1.90;99.90;;;;;;4992846;28;20554;-52
2023/03/15 00:29:49;;;;;;;8.32;3.20;;;1.90;99.90;;;;;;4991730;28;20111;-49
2023/03/15 00:32:15;;;;;;;6.90;3.10;;;1.90;99.90;;;;;;4989240;28;20500;-50
2023/03/15 00:34:41;;;;;;;7.10;2.88;;;1.90;99.90;;;;;;4972367;28;20058;-51
2023/03/15 00:37:06;;;;;;;8.93;3.05;;;1.90;99.90;;;;;;4973654;28;20066;-51
2023/03/15 00:39:38;;;;;;;9.82;3.10;;;1.90;99.90;;;;;;4976166;28;20705;-50
2023/03/15 00:42:04;;;;;;;6.40;2.63;;;1.90;99.90;;;;;;4987185;28;20089;-49
2023/03/15 00:44:30;;;;;;;5.65;2.40;;;1.80;99.90;;;;;;4992483;28;20531;-50
2023/03/15 00:46:56;;;;;;;7.82;2.58;;;1.80;99.90;;;;;;4972079;28;20054;-49
2023/03/15 00:49:21;;;;;;;7.82;2.53;;;1.80;99.90;;;;;;4968860;28;20042;-53
2023/03/15 00:51:47;;;;;;;6.07;2.65;;;1.80;99.90;;;;;;4970018;28;20042;-51
2023/03/15 00:54:12;;;;;;;5.75;2.47;;;1.80;99.90;;;;;;4979760;28;20038;-53
2023/03/15 00:56:39;;;;;;;5.45;2.38;;;1.80;99.90;;;;;;4981237;28;20062;-49
2023/03/15 00:59:05;;;;;;;4.10;2.00;;;1.70;99.90;;;;;;4977474;28;20047;-51
2023/03/15 01:01:30;;;;;;;6.78;2.17;;;1.70;99.90;;;;;;4961853;28;20416;-49
2023/03/15 01:03:56;;;;;;;5.70;2.20;;;1.70;99.90;;;;;;4967386;28;20100;-50
2023/03/15 01:06:25;;;;;;;5.05;2.20;;;1.80;99.90;;;;;;4971022;28;20047;-49
2023/03/15 01:08:54;;;;;;;6.60;2.63;;;1.90;99.90;;;;;;4975959;28;20053;-50
2023/03/15 01:11:23;;;;;;;4.30;2.25;;;1.90;99.90;;;;;;4981669;28;20776;-50
2023/03/15 01:13:52;;;;;;;7.03;2.30;;;1.90;99.90;;;;;;4982429;28;20095;-52
2023/03/15 01:16:18;;;;;;;4.95;2.10;;;2.00;99.90;;;;;;4959206;28;20489;-49
2023/03/15 01:18:44;;;;;;;4.85;2.42;;;2.00;99.90;;;;;;4961502;28;20046;-51
2023/03/15 01:21:12;;;;;;;5.53;2.10;;;2.00;99.90;;;;;;4968434;28;20031;-49
2023/03/15 01:23:39;;;;;;;7.00;2.40;;;2.00;99.90;;;;;;4960943;28;20054;-49
2023/03/15 01:26:07;;;;;;;7.95;2.58;;;2.00;99.90;;;;;;4962372;28;20505;-51
2023/03/15 01:28:33;;;;;;;5.13;2.17;;;1.90;99.90;;;;;;4962115;28;20133;-49
2023/03/15 01:30:58;;;;;;;4.78;1.70;;;1.90;99.90;;;;;;4962181;28;20614;-53
2023/03/15 01:33:24;;;;;;;4.47;2.33;;;1.80;99.90;;;;;;4961392;28;20081;-50
2023/03/15 01:36:03;;;;;;;4.97;2.28;;;1.80;99.90;;;;;;4947535;28;20039;-52
2023/03/15 01:38:29;;;;;;;4.80;2.30;;;1.70;99.90;;;;;;4961539;28;20039;-50
2023/03/15 01:40:56;;;;;;;5.53;2.17;;;1.70;99.90;;;;;;4961161;28;20062;-49
2023/03/15 01:43:23;;;;;;;4.43;1.92;;;1.70;99.90;;;;;;4963200;28;20050;-51
2023/03/15 01:46:04;;;;;;;5.05;2.03;;;1.70;99.90;;;;;;4961176;28;20043;-52
2023/03/15 01:48:37;;;;;;;6.05;2.22;;;1.70;99.90;;;;;;4960301;28;20054;-50
2023/03/15 01:51:15;;;;;;;4.57;2.30;;;1.70;99.90;;;;;;4958325;28;20104;-53
2023/03/15 01:53:46;;;;;;;5.32;2.40;;;1.70;99.90;;;;;;4964601;28;20068;-52
2023/03/15 01:56:12;;;;;;;8.52;2.47;;;1.70;99.90;;;;;;4963496;28;20042;-54
2023/03/15 01:58:40;;;;;;;3.85;1.90;;;1.80;99.90;;;;;;4966075;28;20042;-51
2023/03/15 02:01:07;;;;;;;;;;;1.80;99.90;;;;;;4961633;28;20525;-51
2023/03/15 02:03:45;;;;;;;6.30;2.17;;;1.80;99.90;;;;;;4969622;28;19929;-50
2023/03/15 02:06:16;;;;;;;;;;;1.90;99.90;;;;;;4961022;28;20420;-52
2023/03/15 02:08:53;;;;;;;6.95;2.22;;;1.90;99.90;;;;;;4960730;28;19922;-50
2023/03/15 02:11:23;;;;;;;8.85;2.67;;;2.00;99.90;;;;;;4961086;28;20058;-50
2023/03/15 02:13:48;;;;;;;4.00;1.98;;;1.90;99.90;;;;;;4974221;28;20061;-53
2023/03/15 02:16:15;;;;;;;7.15;1.83;;;1.80;99.90;;;;;;4970559;28;20073;-54
2023/03/15 02:18:41;;;;;;;3.97;1.85;;;1.80;99.90;;;;;;4966798;28;20066;-52
2023/03/15 02:21:28;;;;;;;6.45;1.70;;;1.80;99.90;;;;;;4975157;28;20089;-50
2023/03/15 02:24:21;;;;;;;6.07;1.85;;;1.70;99.90;;;;;;4960031;28;20067;-50
2023/03/15 02:26:52;;;;;;;5.45;1.98;;;1.60;99.90;;;;;;4992741;28;20175;-50
2023/03/15 02:29:18;;;;;;;5.53;1.60;;;1.50;99.90;;;;;;4981204;28;20050;-53
2023/03/15 02:31:43;;;;;;;5.05;1.67;;;1.50;99.90;;;;;;4982751;28;20078;-52
2023/03/15 02:34:09;;;;;;;4.47;1.35;;;1.40;99.90;;;;;;4970628;28;20132;-51
2023/03/15 02:36:35;;;;;;;6.47;1.70;;;1.40;99.90;;;;;;4971525;28;20039;-50
2023/03/15 02:39:11;;;;;;;4.47;1.55;;;1.40;99.90;;;;;;4974672;28;20046;-51
2023/03/15 02:41:43;;;;;;;6.97;1.75;;;1.40;99.90;;;;;;4983397;28;20066;-51
2023/03/15 02:44:32;;;;;;;7.00;1.70;;;1.30;99.90;;;;;;4989234;28;20069;-51
2023/03/15 02:47:27;;;;;;;2.83;1.45;;;1.30;99.90;;;;;;4968353;28;20059;-52
2023/03/15 02:49:53;;;;;;;6.78;1.67;;;1.20;99.90;;;;;;4969406;28;20069;-50
2023/03/15 02:52:20;;;;;;;4.90;1.52;;;1.20;99.90;;;;;;4965873;28;20066;-52
2023/03/15 02:54:45;;;;;;;9.75;1.80;;;1.20;99.90;;;;;;4972080;28;20030;-50
2023/03/15 02:57:13;;;;;;;8.68;1.95;;;1.10;99.90;;;;;;4977840;28;20045;-49
2023/03/15 02:59:40;;;;;;;11.37;2.40;;;1.10;99.90;;;;;;4973634;28;20047;-50
2023/03/15 03:02:06;;;;;;;8.63;1.88;;;1.10;99.90;;;;;;4975305;28;20043;-50
2023/03/15 03:04:32;;;;;;;5.25;1.52;;;1.10;99.90;;;;;;4978090;28;20049;-49
2023/03/15 03:06:57;;;;;;;8.32;2.40;;;1.00;99.90;;;;;;4976923;28;20396;-50
2023/03/15 03:09:23;;;;;;;4.95;1.88;;;1.00;99.90;;;;;;4983047;28;20050;-49
2023/03/15 03:11:49;;;;;;;4.45;1.60;;;1.00;99.90;;;;;;4987998;28;20049;-50
2023/03/15 03:14:15;;;;;;;10.77;2.42;;;1.00;99.90;;;;;;4965197;28;20066;-51
2023/03/15 03:16:41;;;;;;;6.25;1.58;;;1.00;99.90;;;;;;4976148;28;20041;-49
2023/03/15 03:19:08;;;;;;;9.15;1.80;;;0.90;99.90;;;;;;4974251;28;20042;-51
2023/03/15 03:21:34;;;;;;;4.68;1.67;;;1.00;99.90;;;;;;4981014;28;20609;-53
2023/03/15 03:23:59;;;;;;;9.98;1.90;;;0.90;99.90;;;;;;4972753;28;20444;-50
2023/03/15 03:26:26;;;;;;;4.50;1.70;;;0.80;99.90;;;;;;4985729;28;20049;-51
2023/03/15 03:28:53;;;;;;;6.70;1.75;;;0.80;99.90;;;;;;4975383;28;20053;-50
2023/03/15 03:31:25;;;;;;;7.53;1.80;;;0.80;99.90;;;;;;4981936;28;20488;-50
2023/03/15 03:33:51;;;;;;;10.07;1.50;;;0.70;99.90;;;;;;4979276;28;20056;-51
2023/03/15 03:36:17;;;;;;;7.03;1.52;;;0.70;99.90;;;;;;4970690;28;20043;-50
2023/03/15 03:38:45;;;;;;;7.88;1.98;;;0.70;99.90;;;;;;4974711;28;20057;-49
2023/03/15 03:41:12;;;;;;;5.13;1.77;;;0.70;99.90;;;;;;4982860;28;20125;-49
2023/03/15 03:43:38;;;;;;;9.40;1.30;;;0.60;99.90;;;;;;4980238;28;20061;-49
2023/03/15 03:46:04;;;;;;;9.27;1.58;;;0.60;99.90;;;;;;4989121;28;20046;-51
2023/03/15 03:48:30;;;;;;;6.63;1.00;;;0.60;99.90;;;;;;4978233;28;20073;-50
2023/03/15 03:50:57;;;;;;;9.27;1.50;;;0.60;99.90;;;;;;4979545;28;20065;-50
2023/03/15 03:53:23;;;;;;;7.90;1.60;;;0.60;99.90;;;;;;4979671;28;20050;-50
2023/03/15 03:55:49;;;;;;;4.20;1.25;;;0.50;99.90;;;;;;4981066;28;20045;-50
2023/03/15 03:58:14;;;;;;;14.52;1.88;;;0.50;99.90;;;;;;4967063;28;20527;-49
2023/03/15 04:00:43;;;;;;;9.68;1.75;;;0.50;99.90;;;;;;4979489;28;20039;-50
2023/03/15 04:03:08;;;;;;;5.68;1.33;;;0.50;99.90;;;;;;4977482;28;20121;-50
2023/03/15 04:05:34;;;;;;;6.53;1.48;;;0.50;99.90;;;;;;4975530;28;20121;-50
2023/03/15 04:08:00;;;;;;;9.80;1.60;;;0.40;99.90;;;;;;4977073;28;20121;-50
2023/03/15 04:10:26;;;;;;;8.18;1.60;;;0.50;99.90;;;;;;4983635;28;20464;-51
2023/03/15 04:12:53;;;;;;;7.47;1.60;;;0.40;99.90;;;;;;4980439;28;20574;-50
2023/03/15 04:15:21;;;;;;;9.00;1.37;;;0.40;99.90;;;;;;4980921;28;20485;-50
2023/03/15 04:17:48;;;;;;;10.50;1.83;;;0.40;99.90;;;;;;4980168;28;20301;-49
2023/03/15 04:20:14;;;;;;;3.13;1.05;;;0.40;99.90;;;;;;4996519;28;20304;-49
2023/03/15 04:22:40;;;;;;;9.20;1.20;;;0.30;99.90;;;;;;4978682;28;20038;-49
2023/03/15 04:25:06;;;;;;;8.05;1.58;;;0.30;99.90;;;;;;4985046;28;20403;-50
2023/03/15 04:27:31;;;;;;;8.02;1.50;;;0.30;99.90;;;;;;4987821;28;20034;-50
2023/03/15 04:29:57;;;;;;;12.40;1.40;;;0.30;99.90;;;;;;4986493;28;20041;-49
2023/03/15 04:32:23;;;;;;;9.68;2.38;;;0.30;99.90;;;;;;4980394;28;20046;-51
2023/03/15 04:34:50;;;;;;;6.88;1.25;;;0.40;99.90;;;;;;4979036;28;20095;-50
2023/03/15 04:37:17;;;;;;;7.15;1.65;;;0.40;99.90;;;;;;4985434;28;20457;-52
2023/03/15 04:39:43;;;;;;;4.88;1.13;;;0.40;99.90;;;;;;4985773;28;20460;-51
2023/03/15 04:42:09;;;;;;;5.47;1.33;;;0.40;99.90;;;;;;4982338;28;20138;-49
2023/03/15 04:44:35;;;;;;;6.80;1.40;;;0.40;99.90;;;;;;4972534;28;20046;-52
2023/03/15 04:47:01;;;;;;;5.57;1.17;;;0.50;99.90;;;;;;4972738;28;20042;-51
2023/03/15 04:49:27;;;;;;;7.97;1.52;;;0.50;99.90;;;;;;4968389;28;20531;-50
2023/03/15 04:51:52;;;;;;;8.15;1.25;;;0.50;99.90;;;;;;4967134;28;20456;-51
2023/03/15 04:54:18;;;;;;;6.93;1.38;;;0.60;99.90;;;;;;4972040;28;20116;-50
2023/03/15 04:56:43;;;;;;;7.63;1.52;;;0.60;99.90;;;;;;4973845;28;20504;-50
2023/03/15 04:59:10;;;;;;;7.22;1.40;;;0.60;99.90;;;;;;4975988;28;20039;-51
2023/03/15 05:01:36;;;;;;;13.35;1.88;;;0.60;99.90;;;;;;4967625;28;20074;-53
2023/03/15 05:04:01;;;;;;;8.70;1.40;;;0.60;99.90;;;;;;4966333;28;20050;-53
2023/03/15 05:06:28;;;;;;;6.28;1.65;;;0.70;99.90;;;;;;4963871;28;20058;-51
2023/03/15 05:08:54;;;;;;;5.35;1.38;;;0.70;99.90;;;;;;4960876;28;20145;-51
2023/03/15 05:11:20;;;;;;;8.80;1.15;;;0.60;99.90;;;;;;4976479;28;20122;-50
2023/03/15 05:13:45;;;;;;;4.75;1.20;;;0.60;99.90;;;;;;4961298;28;20101;-54
2023/03/15 05:16:11;;;;;;;10.10;1.20;;;0.60;99.90;;;;;;4960149;28;20469;-50
2023/03/15 05:18:37;;;;;;;7.50;1.58;;;0.60;99.90;;;;;;4964112;28;20035;-51
2023/03/15 05:21:04;;;;;;;4.55;1.10;;;0.50;99.90;;;;;;4960857;28;20074;-50
2023/03/15 05:23:32;;;;;;;5.93;1.17;;;0.50;99.90;;;;;;4962505;28;20042;-50
2023/03/15 05:25:58;;;;;;;10.13;1.35;;;0.50;99.90;;;;;;4964585;28;20038;-50
2023/03/15 05:28:25;;;;;;;6.30;1.40;;;0.40;99.90;;;;;;4968177;28;20043;-52
2023/03/15 05:30:52;;;;;;;6.32;1.30;;;0.40;99.90;;;;;;4961788;28;20034;-50
2023/03/15 05:33:18;;;;;;;6.50;1.35;;;0.30;99.90;;;;;;4966718;28;20058;-52
2023/03/15 05:35:44;;;;;;;8.98;1.98;;;0.30;99.90;;;;;;4967288;28;20055;-50
2023/03/15 05:38:13;;;;;;;3.65;1.20;;;0.30;99.90;;;;;;4961306;28;20042;-50
2023/03/15 05:40:45;;;;;;;7.05;1.25;;;0.30;99.90;;;;;;4960689;28;20598;-49
2023/03/15 05:43:11;;;;;;;6.88;1.20;;;0.20;99.90;;;;;;4960098;28;20051;-52
2023/03/15 05:45:38;;;;;;;10.32;1.40;;;0.20;99.90;;;;;;4964304;28;20039;-54
2023/03/15 05:48:04;;;;;;;7.40;1.60;;;0.20;99.90;;;;;;4946845;28;20053;-50
2023/03/15 05:50:30;;;;;;;6.65;1.50;;;0.20;99.90;;;;;;4959952;28;20478;-51
2023/03/15 05:52:56;;;;;;;6.82;1.50;;;0.20;99.90;;;;;;4962747;28;20051;-50
2023/03/15 05:55:22;;;;;;;4.90;1.33;;;0.20;99.90;;;;;;4961084;28;20551;-51
2023/03/15 05:57:48;;;;;;;7.00;1.33;;;0.30;99.90;;;;;;4961013;28;20493;-52
2023/03/15 06:00:15;;;;;;;8.50;1.70;;;0.40;99.90;;;;;;4975591;28;20154;-50
2023/03/15 06:02:41;;;;;;;7.63;1.35;;;0.40;99.90;;;;;;4962765;28;20039;-51
2023/03/15 06:05:07;;;;;;;9.88;1.67;;;0.50;99.90;;;;;;4964914;28;20150;-49
2023/03/15 06:07:33;;;;;;;7.53;1.60;;;0.60;99.90;;;;;;4971876;28;20030;-53
2023/03/15 06:09:59;;;;;;;8.15;1.55;;;0.80;99.90;;;;;;4975803;28;20046;-51
2023/03/15 06:12:24;;;;;;;5.45;1.63;;;0.90;99.90;;;;;;4970122;28;20613;-51
2023/03/15 06:14:50;;;;;;;11.63;1.80;;;0.90;99.90;;;;;;4963050;28;20082;-51
2023/03/15 06:17:16;;;;;;;7.45;1.77;;;1.00;99.90;;;;;;4961527;28;20519;-52
2023/03/15 06:19:41;;;;;;;5.82;1.52;;;1.10;99.90;;;;;;4964746;28;20053;-50
2023/03/15 06:22:07;;;;;;;7.70;1.50;;;1.20;99.90;;;;;;4969104;28;20045;-54
2023/03/15 06:24:33;;;;;;;6.85;1.92;;;1.20;99.90;;;;;;4975738;28;20559;-51
2023/03/15 06:26:59;;;;;;;8.95;1.40;;;1.20;99.90;;;;;;4985145;28;20433;-50
2023/03/15 06:29:26;;;;;;;6.68;1.42;;;1.20;99.90;;;;;;4980843;28;20054;-51
2023/03/15 06:31:52;;;;;;;6.75;1.48;;;1.20;99.90;;;;;;4973325;28;20088;-52
2023/03/15 06:34:18;;;;;;;4.40;1.55;;;1.20;99.90;;;;;;4981744;28;20049;-50
2023/03/15 06:36:44;;;;;;;11.57;1.98;;;1.20;99.90;;;;;;4984254;28;20557;-50
2023/03/15 06:39:11;;;;;;;6.35;1.90;;;1.20;99.90;;;;;;4972659;28;20043;-51
2023/03/15 06:41:37;;;;;;;8.50;1.50;;;1.20;99.90;;;;;;4968645;28;20062;-50
2023/03/15 06:44:03;;;;;;;5.50;1.40;;;1.10;99.90;;;;;;4973099;28;20074;-49
2023/03/15 06:46:29;;;;;;;6.40;1.73;;;1.10;99.90;;;;;;4968187;28;20130;-48
2023/03/15 06:48:55;;;;;;;6.70;1.52;;;1.10;99.90;;;;;;4970188;28;20039;-48
2023/03/15 06:51:21;;;;;;;5.70;1.20;;;1.20;99.90;;;;;;4973248;28;20158;-52
2023/03/15 06:53:47;;;;;;;6.93;1.60;;;1.50;99.90;;;;;;4986802;28;20041;-49
2023/03/15 06:56:12;;;;;;;6.47;1.70;;;2.40;99.90;;;;;;4974227;28;20046;-49
2023/03/15 06:58:38;;;;;;;9.48;1.77;;;3.30;99.90;;;;;;4982752;28;20496;-49
2023/03/15 07:01:04;;;;;;;7.95;1.75;;;4.00;99.90;;;;;;4974816;28;20045;-49
2023/03/15 07:03:29;;;;;;;5.80;1.50;;;4.50;99.90;;;;;;4968111;28;20088;-50
2023/03/15 07:05:55;;;;;;;8.25;1.35;;;5.10;99.90;;;;;;4966704;28;20042;-48
2023/03/15 07:08:22;;;;;;;7.10;1.48;;;5.50;99.90;;;;;;4976188;28;20042;-51
2023/03/15 07:10:49;;;;;;;4.53;1.75;;;5.90;99.90;;;;;;4979245;28;20043;-50
2023/03/15 07:13:15;;;;;;;8.77;1.35;;;5.70;99.90;;;;;;4965540;28;21470;-54
2023/03/15 07:15:41;;;;;;;6.07;1.10;;;5.20;99.90;;;;;;4973465;28;20039;-51
2023/03/15 07:18:07;;;;;;;8.07;1.80;;;4.70;99.90;;;;;;4968213;28;20041;-50
2023/03/15 07:20:32;;;;;;;7.85;1.45;;;4.40;99.90;;;;;;4972722;28;20484;-52
2023/03/15 07:22:58;;;;;;;9.05;1.80;;;4.10;99.90;;;;;;4970707;28;20125;-50
2023/03/15 07:25:24;;;;;;;8.18;1.48;;;3.90;99.90;;;;;;4971260;28;20047;-48
2023/03/15 07:27:51;;;;;;;7.25;1.45;;;3.70;99.90;;;;;;4970770;28;20062;-50
2023/03/15 07:30:18;;;;;;;8.15;1.38;;;3.60;99.90;;;;;;4937423;28;20050;-48
2023/03/15 07:32:43;;;;;;;9.32;2.15;;;3.60;99.90;;;;;;4969135;28;20054;-50
2023/03/15 07:35:10;;;;;;;5.45;1.58;;;3.60;99.90;;;;;;4974903;28;20045;-50
2023/03/15 07:37:35;;;;;;;3.13;1.15;;;3.60;99.90;;;;;;4983190;28;20035;-49
2023/03/15 07:40:02;;;;;;;6.70;1.50;;;3.70;99.90;;;;;;4970342;28;20058;-48
2023/03/15 07:42:27;;;;;;;3.42;1.35;;;3.70;99.90;;;;;;4970669;28;20134;-50
2023/03/15 07:44:53;;;;;;;7.20;1.38;;;3.70;99.90;;;;;;4970856;28;20459;-49
2023/03/15 07:47:19;;;;;;;4.60;1.30;;;3.70;99.90;;;;;;4975699;28;20047;-49
2023/03/15 07:49:44;;;;;;;3.63;1.20;;;3.70;99.90;;;;;;4969359;28;20116;-50
2023/03/15 07:52:10;;;;;;;6.00;1.40;;;3.80;99.90;;;;;;4971006;28;20470;-50
2023/03/15 07:54:36;;;;;;;4.88;1.38;;;3.80;99.90;;;;;;4969828;28;20405;-48
2023/03/15 07:57:01;;;;;;;7.53;1.45;;;3.90;99.90;;;;;;4970851;28;20074;-49
2023/03/15 07:59:27;;;;;;;6.22;1.40;;;4.00;99.90;;;;;;4967642;28;20507;-49
2023/03/15 08:01:53;;;;;;;7.00;1.88;;;4.10;99.90;;;;;;4972464;28;20510;-49
2023/03/15 08:04:18;;;;;;;6.85;1.58;;;4.10;99.90;;;;;;4989843;28;20042;-51
2023/03/15 08:06:44;;;;;;;5.47;1.20;;;4.20;99.90;;;;;;4972712;28;20054;-49
2023/03/15 08:09:10;;;;;;;6.22;1.42;;;4.30;99.90;;;;;;4989904;28;20049;-50
2023/03/15 08:11:36;;;;;;;10.40;1.70;;;4.40;99.90;;;;;;4982246;28;20054;-52
2023/03/15 08:14:02;;;;;;;7.47;1.50;;;4.40;99.90;;;;;;4970802;28;20373;-51
2023/03/15 08:16:27;;;;;;;8.50;1.63;;;4.50;99.90;;;;;;4981045;28;20039;-49
2023/03/15 08:18:53;;;;;;;7.43;1.77;;;4.60;99.90;;;;;;4972120;28;20481;-51
2023/03/15 08:21:18;;;;;;;5.40;1.50;;;4.60;99.90;;;;;;4968690;28;20070;-51
2023/03/15 08:23:44;;;;;;;5.50;1.27;;;4.70;99.90;;;;;;4953023;28;20047;-51
2023/03/15 08:26:10;;;;;;;7.35;1.63;;;4.90;99.90;;;;;;4952855;29;20042;-51
2023/03/15 08:28:35;;;;;;;5.82;1.50;;;5.00;99.90;;;;;;4956616;28;20082;-50
2023/03/15 08:31:06;;;;;;;6.72;1.55;;;5.00;99.90;;;;;;4980057;28;20034;-49
2023/03/15 08:33:32;;;;;;;6.03;1.50;;;5.10;99.90;;;;;;4972974;28;20054;-51
2023/03/15 08:35:57;;;;;;;6.68;1.40;;;5.20;99.90;;;;;;4973195;28;20043;-50
2023/03/15 08:38:25;;;;;;;5.72;1.50;;;5.40;99.90;;;;;;4972508;28;20047;-50
2023/03/15 08:40:55;;;;;;;8.20;1.53;;;5.50;99.90;;;;;;4971577;28;20087;-49
2023/03/15 08:43:21;;;;;;;8.10;1.80;;;5.60;99.90;;;;;;4967980;28;20047;-51
2023/03/15 08:45:48;;;;;;;9.57;2.10;;;5.70;99.90;;;;;;4977996;28;20063;-49
2023/03/15 08:48:14;;;;;;;5.03;1.75;;;5.80;99.90;;;;;;4982458;28;20126;-50
2023/03/15 08:50:39;;;;;;;8.65;1.38;;;5.90;99.90;;;;;;4982392;28;20443;-49
2023/03/15 08:53:05;;;;;;;9.05;1.35;;;6.00;99.90;;;;;;4982646;28;20047;-49
2023/03/15 08:55:31;;;;;;;7.65;1.27;;;6.00;99.90;;;;;;4981894;28;20041;-53
2023/03/15 08:57:56;;;;;;;9.60;1.63;;;6.20;99.90;;;;;;4973164;28;20046;-52
2023/03/15 09:00:22;;;;;;;8.63;1.58;;;6.20;99.90;;;;;;4981712;28;20040;-50
2023/03/15 09:02:50;;;;;;;11.50;1.77;;;6.20;99.90;;;;;;4980781;28;20394;-49
2023/03/15 09:05:17;;;;;;;10.05;1.50;;;6.40;99.90;;;;;;4978013;28;20070;-49
2023/03/15 09:07:43;;;;;;;9.63;1.50;;;6.40;99.90;;;;;;4983165;28;20132;-50
2023/03/15 09:10:13;;;;;;;8.75;1.83;;;6.50;99.90;;;;;;4974880;28;20054;-50
2023/03/15 09:12:43;;;;;;;6.22;1.88;;;6.60;99.90;;;;;;4976703;28;20444;-49
2023/03/15 09:15:10;;;;;;;9.27;1.80;;;6.70;99.90;;;;;;4980123;28;20034;-50
2023/03/15 09:17:36;;;;;;;8.50;1.73;;;6.80;99.90;;;;;;4982148;28;20051;-49
2023/03/15 09:20:03;;;;;;;11.50;1.73;;;7.00;99.90;;;;;;4971153;28;20059;-49
2023/03/15 09:22:29;;;;;;;9.02;2.05;;;7.00;99.90;;;;;;4968936;28;20052;-50
2023/03/15 09:24:55;;;;;;;9.90;1.67;;;6.80;99.90;;;;;;4991472;28;20117;-49
2023/03/15 09:27:20;;;;;;;12.32;2.00;;;7.20;99.90;;;;;;5064002;28;20098;-50
2023/03/15 09:29:46;;;;;;;10.23;1.63;;;7.30;99.90;;;;;;4974390;28;20046;-49
2023/03/15 09:32:12;;;;;;;10.02;1.60;;;7.50;99.90;;;;;;4984959;28;20049;-52
2023/03/15 09:34:37;;;;;;;8.98;2.33;;;7.50;99.90;;;;;;4979298;28;20568;-52
2023/03/15 09:37:04;;;;;;;6.95;1.80;;;7.30;99.90;;;;;;4976681;28;20042;-48
2023/03/15 09:39:32;;;;;;;7.13;1.55;;;7.30;99.90;;;;;;4974387;28;20042;-50
2023/03/15 09:42:01;;;;;;;7.55;1.23;;;7.30;99.90;;;;;;4975448;28;20063;-49
2023/03/15 09:44:44;;;;;;;5.55;1.13;;;7.20;99.90;;;;;;4973748;28;20042;-51
2023/03/15 09:47:24;;;;;;;7.50;1.40;;;7.40;99.90;;;;;;4977829;28;20079;-49
2023/03/15 09:49:52;;;;;;;8.93;1.60;;;7.60;99.90;;;;;;4974148;28;20047;-49
2023/03/15 09:52:33;;;;;;;8.90;1.70;;;7.60;99.90;;;;;;4979912;28;20129;-49
2023/03/15 09:55:04;;;;;;;6.72;1.77;;;7.80;99.90;;;;;;4973677;28;20125;-50
2023/03/15 09:57:42;;;;;;;7.07;1.48;;;7.90;99.90;;;;;;4983552;28;20065;-51
2023/03/15 10:00:19;;;;;;;7.50;1.58;;;7.80;99.90;;;;;;4983619;28;20511;-49
2023/03/15 10:03:00;;;;;;;7.23;1.23;;;7.60;99.90;;;;;;4977464;28;20053;-51
2023/03/15 10:05:37;;;;;;;4.15;1.10;;;7.60;99.90;;;;;;4970833;28;20560;-54
2023/03/15 10:08:13;;;;;;;4.22;1.00;;;7.50;99.90;;;;;;4969497;28;20047;-49
2023/03/15 10:11:02;;;;;;;5.88;1.20;;;7.40;99.90;;;;;;4969857;28;20050;-53
2023/03/15 10:13:49;;;;;;;6.97;1.13;;;7.30;99.90;;;;;;4966417;28;20392;-53
2023/03/15 10:16:39;;;;;;;2.43;0.80;;;7.40;99.90;;;;;;4975275;28;20400;-48
2023/03/15 10:19:32;;;;;;;4.93;1.25;;;7.50;99.90;;;;;;4960857;28;20074;-51
2023/03/15 10:22:33;;;;;;;5.72;1.10;;;7.60;99.90;;;;;;4975434;28;20070;-49
2023/03/15 10:25:14;;;;;;;5.93;1.17;;;7.70;99.90;;;;;;4966640;28;20061;-49
2023/03/15 10:27:41;;;;;;;4.97;1.50;;;7.90;99.90;;;;;;4958328;28;20043;-49
2023/03/15 10:30:23;;;;;;;5.43;1.27;;;7.80;99.90;;;;;;4974992;28;20042;-50
2023/03/15 10:33:01;;;;;;;6.68;1.25;;;8.10;99.90;;;;;;4975849;28;20492;-50
2023/03/15 10:35:27;;;;;;;5.13;1.38;;;8.20;99.90;;;;;;4988606;28;20073;-48
2023/03/15 10:37:53;;;;;;;5.68;1.35;;;8.20;99.90;;;;;;4971704;28;20475;-50
2023/03/15 10:40:58;;;;;;;5.78;1.42;;;8.40;99.90;;;;;;4969231;28;20065;-50
2023/03/15 10:43:35;;;;;;;7.43;1.70;;;8.50;99.90;;;;;;4969717;28;20050;-50
2023/03/15 10:46:08;;;;;;;4.95;1.33;;;8.50;99.90;;;;;;4968485;28;20660;-51
2023/03/15 10:48:59;;;;;;;6.03;1.25;;;8.60;99.90;;;;;;4950600;28;20055;-50
2023/03/15 10:51:36;;;;;;;7.80;1.40;;;8.70;99.90;;;;;;4955955;28;21739;-51
2023/03/15 10:54:11;;;;;;;5.93;1.42;;;8.60;99.90;;;;;;4966882;28;20055;-50
2023/03/15 10:57:01;;;;;;;7.75;1.40;;;8.50;99.90;;;;;;4950699;28;20085;-51
2023/03/15 10:59:30;;;;;;;8.73;1.60;;;8.60;99.90;;;;;;4965457;28;20761;-50
2023/03/15 11:02:21;;;;;;;8.40;1.67;;;8.70;99.90;;;;;;4968216;28;20061;-50
2023/03/15 11:05:01;;;;;;;4.95;1.20;;;8.60;99.90;;;;;;4963557;28;20501;-49
2023/03/15 11:07:27;;;;;;;7.80;1.67;;;8.70;99.90;;;;;;4966685;28;20059;-53
2023/03/15 11:09:58;;;;;;;8.18;2.15;;;8.60;99.90;;;;;;4949956;28;20043;-53
2023/03/15 11:12:32;;;;;;;7.00;1.30;;;8.70;99.90;;;;;;4967752;28;20461;-50
2023/03/15 11:15:03;;;;;;;6.38;1.40;;;8.40;99.90;;;;;;4970092;28;20050;-51
2023/03/15 11:17:33;;;;;;;5.60;1.60;;;8.60;99.90;;;;;;4984229;28;20038;-50
2023/03/15 11:20:12;;;;;;;5.20;1.50;;;8.80;99.90;;;;;;4981686;28;20361;-49
2023/03/15 11:22:38;;;;;;;6.03;1.77;;;9.00;99.90;;;;;;4973309;28;20096;-49
2023/03/15 11:25:10;;;;;;;4.68;1.30;;;9.00;99.90;;;;;;4994180;28;20061;-49
2023/03/15 11:27:36;;;;;;;6.70;1.65;;;8.70;99.90;;;;;;4982925;28;20167;-50
2023/03/15 11:30:03;;;;;;;4.70;1.50;;;8.50;99.90;;;;;;4978729;28;20412;-50
2023/03/15 11:32:31;;;;;;;9.60;1.90;;;8.80;99.90;;;;;;4973552;28;20038;-49
2023/03/15 11:35:00;;;;;;;;;;;9.10;99.90;;;;;;4978122;28;20066;-51
2023/03/15 11:37:40;;;;;;;2.88;1.08;;;9.00;99.90;;;;;;4982288;28;20016;-49
2023/03/15 11:40:06;;;;;;;4.57;1.38;;;9.10;99.90;;;;;;4977692;28;20047;-50
2023/03/15 11:43:10;;;;;;;6.43;1.20;;;9.20;99.90;;;;;;4977021;28;20059;-51
2023/03/15 11:45:57;;;;;;;4.05;0.85;;;8.90;99.90;;;;;;4970676;28;20453;-49
2023/03/15 11:48:28;;;;;;;4.13;1.00;;;8.80;99.90;;;;;;4978087;28;20082;-49
2023/03/15 11:50:56;;;;;;;4.95;1.30;;;9.00;99.90;;;;;;4973530;28;20135;-49
2023/03/15 11:53:26;;;;;;;3.28;1.15;;;9.00;99.90;;;;;;4972757;28;20046;-49
2023/03/15 11:55:53;;;;;;;5.32;1.30;;;9.30;99.90;;;;;;4979060;28;20087;-49
2023/03/15 11:58:41;;;;;;;3.75;1.17;;;9.40;99.90;;;;;;4987497;28;20082;-53
2023/03/15 12:01:10;;;;;;;;;;;9.50;99.90;;;;;;4978816;28;20443;-50
2023/03/15 12:03:42;;;;;;;5.18;1.13;;;9.60;99.90;;;;;;4984258;28;19921;-50
2023/03/15 12:06:16;;;;;;;5.80;0.88;;;9.80;99.90;;;;;;4978958;28;20388;-54
2023/03/15 12:08:50;;;;;;;2.95;0.80;;;9.80;99.90;;;;;;4984285;28;20047;-51
2023/03/15 12:11:19;;;;;;;4.30;1.05;;;9.60;99.90;;;;;;4981210;28;20043;-49
2023/03/15 12:13:57;;;;;;;3.28;1.08;;;9.40;99.90;;;;;;4985275;28;20400;-49
2023/03/15 12:16:26;;;;;;;4.47;1.23;;;9.40;99.90;;;;;;4975775;28;20136;-51
2023/03/15 12:18:56;;;;;;;3.78;0.90;;;9.20;99.90;;;;;;4980546;28;20113;-52
2023/03/15 12:21:36;;;;;;;5.60;0.85;;;8.80;99.90;;;;;;4981704;28;20413;-49
2023/03/15 12:24:06;;;;;;;7.45;1.40;;;8.70;99.90;;;;;;4980320;28;20038;-52
2023/03/15 12:26:44;;;;;;;5.55;1.17;;;8.40;99.90;;;;;;4976763;28;20053;-50
2023/03/15 12:29:13;;;;;;;4.53;1.50;;;8.40;99.90;;;;;;4981599;28;20056;-53
2023/03/15 12:31:56;;;;;;;5.80;1.20;;;8.40;99.90;;;;;;4976550;28;21826;-51
2023/03/15 12:34:36;;;;;;;4.68;1.38;;;8.50;99.90;;;;;;4971587;28;20956;-50
2023/03/15 12:37:07;;;;;;;4.32;1.13;;;8.60;99.90;;;;;;4980373;28;20505;-54
2023/03/15 12:40:21;;;;;;;2.83;1.02;;;8.40;99.90;;;;;;4970180;28;20151;-49
2023/03/15 12:42:51;;;;;;;4.43;0.98;;;8.40;99.90;;;;;;4973903;28;20119;-50
2023/03/15 12:45:16;;;;;;;3.35;1.10;;;8.60;99.90;;;;;;4965938;28;20051;-49
2023/03/15 12:47:48;;;;;;;5.20;1.35;;;8.80;99.90;;;;;;4968508;28;20954;-51
2023/03/15 18:13:20;;;;;;;3.70;1.23;;;4.90;99.90;;;;;;1940445;22;20044;-74
2023/03/15 18:15:48;;;;;;;4.05;1.35;;;4.80;99.90;;;;;;5082597;28;20090;-77
2023/03/15 18:18:14;;;;;;;4.50;1.30;;;4.80;99.90;;;;;;5070230;28;20036;-76
2023/03/15 18:20:40;;;;;;;4.32;1.63;;;4.70;99.90;;;;;;5088955;28;20455;-74
2023/03/15 18:23:07;;;;;;;3.47;1.48;;;4.70;99.90;;;;;;5085714;28;20044;-77
2023/03/15 18:25:33;;;;;;;5.82;1.27;;;4.60;99.90;;;;;;5081413;28;20044;-77
2023/03/15 18:28:00;;;;;;;5.15;1.60;;;4.60;99.90;;;;;;5089169;28;20028;-76
2023/03/15 18:30:28;;;;;;;6.15;1.63;;;4.60;99.90;;;;;;5087723;28;20044;-77